sensor_id;sensor_type;location;lat;lon;timestamp;P1;durP1;ratioP1;P2;durP2;ratioP2
19595;SDS011;9945;46.010;8.946;2023-02-12T00:01:13;15.17;;;12.47;;
19595;SDS011;9945;46.010;8.946;2023-02-12T00:03:41;20.13;;;13.93;;
19595;SDS011;9945;46.010;8.946;2023-02-12T00:06:10;18.60;;;14.20;;
19595;SDS011;9945;46.010;8.946;2023-02-12T00:08:37;19.60;;;15.20;;
19595;SDS011;9945;46.010;8.946;2023-02-12T00:11:08;17.80;;;13.43;;
19595;SDS011;9945;46.010;8.946;2023-02-12T00:13:37;20.67;;;14.57;;
19595;SDS011;9945;46.010;8.946;2023-02-12T00:16:05;17.70;;;13.90;;
19595;SDS011;9945;46.010;8.946;2023-02-12T00:18:33;20.97;;;14.83;;
19595;SDS011;9945;46.010;8.946;2023-02-12T00:21:00;20.17;;;13.80;;
19595;SDS011;9945;46.010;8.946;2023-02-12T00:23:29;16.30;;;12.60;;
19595;SDS011;9945;46.010;8.946;2023-02-12T00:25:56;21.23;;;13.57;;
19595;SDS011;9945;46.010;8.946;2023-02-12T00:28:24;19.30;;;13.43;;
19595;SDS011;9945;46.010;8.946;2023-02-12T00:30:51;18.97;;;14.47;;
19595;SDS011;9945;46.010;8.946;2023-02-12T00:33:18;21.37;;;13.63;;
19595;SDS011;9945;46.010;8.946;2023-02-12T00:35:45;18.83;;;13.70;;
19595;SDS011;9945;46.010;8.946;2023-02-12T00:38:20;20.33;;;14.97;;
19595;SDS011;9945;46.010;8.946;2023-02-12T00:40:49;18.37;;;14.20;;
19595;SDS011;9945;46.010;8.946;2023-02-12T00:43:16;18.80;;;13.70;;
19595;SDS011;9945;46.010;8.946;2023-02-12T00:45:43;17.80;;;13.20;;
19595;SDS011;9945;46.010;8.946;2023-02-12T00:48:10;18.73;;;13.27;;
19595;SDS011;9945;46.010;8.946;2023-02-12T00:50:37;16.73;;;12.30;;
19595;SDS011;9945;46.010;8.946;2023-02-12T00:53:05;17.50;;;12.23;;
19595;SDS011;9945;46.010;8.946;2023-02-12T00:55:32;18.83;;;12.80;;
19595;SDS011;9945;46.010;8.946;2023-02-12T00:58:00;16.30;;;11.97;;
19595;SDS011;9945;46.010;8.946;2023-02-12T01:00:27;13.03;;;11.60;;
19595;SDS011;9945;46.010;8.946;2023-02-12T01:02:55;14.20;;;12.13;;
19595;SDS011;9945;46.010;8.946;2023-02-12T01:05:21;15.90;;;12.43;;
19595;SDS011;9945;46.010;8.946;2023-02-12T01:07:49;17.17;;;12.93;;
19595;SDS011;9945;46.010;8.946;2023-02-12T01:10:17;17.27;;;12.53;;
19595;SDS011;9945;46.010;8.946;2023-02-12T01:12:46;18.43;;;13.47;;
19595;SDS011;9945;46.010;8.946;2023-02-12T01:15:15;15.97;;;11.63;;
19595;SDS011;9945;46.010;8.946;2023-02-12T01:17:42;18.50;;;11.83;;
19595;SDS011;9945;46.010;8.946;2023-02-12T01:20:10;14.17;;;11.23;;
19595;SDS011;9945;46.010;8.946;2023-02-12T01:22:39;16.60;;;12.67;;
19595;SDS011;9945;46.010;8.946;2023-02-12T01:25:06;16.07;;;11.93;;
19595;SDS011;9945;46.010;8.946;2023-02-12T01:27:34;14.83;;;11.67;;
19595;SDS011;9945;46.010;8.946;2023-02-12T01:30:01;15.00;;;11.37;;
19595;SDS011;9945;46.010;8.946;2023-02-12T01:32:29;18.13;;;12.80;;
19595;SDS011;9945;46.010;8.946;2023-02-12T01:34:56;14.13;;;11.47;;
19595;SDS011;9945;46.010;8.946;2023-02-12T01:37:23;15.23;;;11.00;;
19595;SDS011;9945;46.010;8.946;2023-02-12T01:39:50;17.30;;;11.53;;
19595;SDS011;9945;46.010;8.946;2023-02-12T01:42:17;13.53;;;11.63;;
19595;SDS011;9945;46.010;8.946;2023-02-12T01:44:44;14.47;;;11.13;;
19595;SDS011;9945;46.010;8.946;2023-02-12T01:47:51;17.30;;;12.57;;
19595;SDS011;9945;46.010;8.946;2023-02-12T01:50:18;15.77;;;11.93;;
19595;SDS011;9945;46.010;8.946;2023-02-12T01:52:47;15.77;;;11.63;;
19595;SDS011;9945;46.010;8.946;2023-02-12T01:55:16;15.63;;;11.53;;
19595;SDS011;9945;46.010;8.946;2023-02-12T01:57:44;13.43;;;10.80;;
19595;SDS011;9945;46.010;8.946;2023-02-12T02:00:14;14.17;;;11.03;;
19595;SDS011;9945;46.010;8.946;2023-02-12T02:02:44;13.00;;;11.00;;
19595;SDS011;9945;46.010;8.946;2023-02-12T02:05:17;15.27;;;10.43;;
19595;SDS011;9945;46.010;8.946;2023-02-12T02:07:50;14.47;;;10.93;;
19595;SDS011;9945;46.010;8.946;2023-02-12T02:10:19;13.43;;;10.03;;
19595;SDS011;9945;46.010;8.946;2023-02-12T02:12:46;15.50;;;11.27;;
19595;SDS011;9945;46.010;8.946;2023-02-12T02:15:30;12.97;;;10.70;;
19595;SDS011;9945;46.010;8.946;2023-02-12T02:17:58;16.67;;;11.10;;
19595;SDS011;9945;46.010;8.946;2023-02-12T02:20:50;14.97;;;11.03;;
19595;SDS011;9945;46.010;8.946;2023-02-12T02:26:49;15.77;;;10.67;;
19595;SDS011;9945;46.010;8.946;2023-02-12T02:32:25;14.57;;;10.53;;
19595;SDS011;9945;46.010;8.946;2023-02-12T02:34:57;13.03;;;10.63;;
19595;SDS011;9945;46.010;8.946;2023-02-12T02:37:30;12.20;;;10.00;;
19595;SDS011;9945;46.010;8.946;2023-02-12T02:40:02;15.20;;;11.03;;
19595;SDS011;9945;46.010;8.946;2023-02-12T02:42:38;12.70;;;10.27;;
19595;SDS011;9945;46.010;8.946;2023-02-12T02:45:10;16.27;;;11.20;;
19595;SDS011;9945;46.010;8.946;2023-02-12T02:47:42;16.13;;;11.07;;
19595;SDS011;9945;46.010;8.946;2023-02-12T02:50:13;13.40;;;10.00;;
19595;SDS011;9945;46.010;8.946;2023-02-12T02:52:44;12.33;;;9.87;;
19595;SDS011;9945;46.010;8.946;2023-02-12T02:55:19;11.60;;;9.90;;
19595;SDS011;9945;46.010;8.946;2023-02-12T02:57:49;13.93;;;10.57;;
19595;SDS011;9945;46.010;8.946;2023-02-12T03:00:21;13.00;;;10.23;;
19595;SDS011;9945;46.010;8.946;2023-02-12T03:02:54;13.73;;;10.93;;
19595;SDS011;9945;46.010;8.946;2023-02-12T03:05:24;13.33;;;10.47;;
19595;SDS011;9945;46.010;8.946;2023-02-12T03:07:57;11.40;;;10.20;;
19595;SDS011;9945;46.010;8.946;2023-02-12T03:10:28;13.97;;;10.70;;
19595;SDS011;9945;46.010;8.946;2023-02-12T03:13:00;14.07;;;10.93;;
19595;SDS011;9945;46.010;8.946;2023-02-12T03:15:32;15.00;;;11.13;;
19595;SDS011;9945;46.010;8.946;2023-02-12T03:18:06;13.60;;;10.60;;
19595;SDS011;9945;46.010;8.946;2023-02-12T03:20:38;13.13;;;10.77;;
19595;SDS011;9945;46.010;8.946;2023-02-12T03:23:09;13.63;;;10.23;;
19595;SDS011;9945;46.010;8.946;2023-02-12T03:25:39;14.50;;;11.73;;
19595;SDS011;9945;46.010;8.946;2023-02-12T03:28:14;13.33;;;11.33;;
19595;SDS011;9945;46.010;8.946;2023-02-12T03:30:45;13.60;;;11.00;;
19595;SDS011;9945;46.010;8.946;2023-02-12T03:33:19;12.17;;;10.40;;
19595;SDS011;9945;46.010;8.946;2023-02-12T03:35:56;13.47;;;10.97;;
19595;SDS011;9945;46.010;8.946;2023-02-12T03:38:30;14.53;;;11.50;;
19595;SDS011;9945;46.010;8.946;2023-02-12T03:41:03;17.53;;;11.83;;
19595;SDS011;9945;46.010;8.946;2023-02-12T03:43:37;13.50;;;11.23;;
19595;SDS011;9945;46.010;8.946;2023-02-12T03:46:16;14.73;;;11.33;;
19595;SDS011;9945;46.010;8.946;2023-02-12T03:48:54;17.30;;;13.10;;
19595;SDS011;9945;46.010;8.946;2023-02-12T03:51:24;16.00;;;12.57;;
19595;SDS011;9945;46.010;8.946;2023-02-12T03:53:55;17.57;;;12.40;;
19595;SDS011;9945;46.010;8.946;2023-02-12T03:56:24;17.27;;;12.23;;
19595;SDS011;9945;46.010;8.946;2023-02-12T03:58:57;15.00;;;12.30;;
19595;SDS011;9945;46.010;8.946;2023-02-12T04:01:24;15.17;;;12.07;;
19595;SDS011;9945;46.010;8.946;2023-02-12T04:03:54;16.00;;;12.77;;
19595;SDS011;9945;46.010;8.946;2023-02-12T04:06:22;13.40;;;11.87;;
19595;SDS011;9945;46.010;8.946;2023-02-12T04:08:50;14.90;;;11.90;;
19595;SDS011;9945;46.010;8.946;2023-02-12T04:11:19;14.17;;;11.10;;
19595;SDS011;9945;46.010;8.946;2023-02-12T04:13:57;12.87;;;10.70;;
19595;SDS011;9945;46.010;8.946;2023-02-12T04:16:39;14.37;;;10.80;;
19595;SDS011;9945;46.010;8.946;2023-02-12T04:19:14;12.67;;;10.53;;
19595;SDS011;9945;46.010;8.946;2023-02-12T04:21:50;14.27;;;10.70;;
19595;SDS011;9945;46.010;8.946;2023-02-12T04:24:31;11.97;;;10.00;;
19595;SDS011;9945;46.010;8.946;2023-02-12T04:27:07;11.63;;;9.83;;
19595;SDS011;9945;46.010;8.946;2023-02-12T04:29:41;13.80;;;10.30;;
19595;SDS011;9945;46.010;8.946;2023-02-12T04:32:17;10.20;;;8.87;;
19595;SDS011;9945;46.010;8.946;2023-02-12T04:34:51;11.27;;;9.83;;
19595;SDS011;9945;46.010;8.946;2023-02-12T04:37:25;11.73;;;10.13;;
19595;SDS011;9945;46.010;8.946;2023-02-12T04:39:57;12.30;;;9.97;;
19595;SDS011;9945;46.010;8.946;2023-02-12T04:42:28;13.07;;;9.83;;
19595;SDS011;9945;46.010;8.946;2023-02-12T04:44:55;16.17;;;10.50;;
19595;SDS011;9945;46.010;8.946;2023-02-12T04:47:22;13.33;;;10.50;;
19595;SDS011;9945;46.010;8.946;2023-02-12T04:49:48;14.60;;;10.40;;
19595;SDS011;9945;46.010;8.946;2023-02-12T04:52:17;12.30;;;9.77;;
19595;SDS011;9945;46.010;8.946;2023-02-12T04:54:43;12.97;;;10.83;;
19595;SDS011;9945;46.010;8.946;2023-02-12T04:57:10;12.70;;;10.63;;
19595;SDS011;9945;46.010;8.946;2023-02-12T04:59:37;14.70;;;10.10;;
19595;SDS011;9945;46.010;8.946;2023-02-12T05:02:04;14.13;;;11.10;;
19595;SDS011;9945;46.010;8.946;2023-02-12T05:04:31;12.10;;;9.53;;
19595;SDS011;9945;46.010;8.946;2023-02-12T05:06:59;12.90;;;9.70;;
19595;SDS011;9945;46.010;8.946;2023-02-12T05:09:26;12.00;;;9.07;;
19595;SDS011;9945;46.010;8.946;2023-02-12T05:11:53;10.60;;;8.63;;
19595;SDS011;9945;46.010;8.946;2023-02-12T05:14:20;11.60;;;9.00;;
19595;SDS011;9945;46.010;8.946;2023-02-12T05:16:49;10.83;;;8.93;;
19595;SDS011;9945;46.010;8.946;2023-02-12T05:19:16;11.00;;;9.20;;
19595;SDS011;9945;46.010;8.946;2023-02-12T05:21:43;12.00;;;9.43;;
19595;SDS011;9945;46.010;8.946;2023-02-12T05:24:11;10.97;;;9.10;;
19595;SDS011;9945;46.010;8.946;2023-02-12T05:26:38;12.03;;;9.40;;
19595;SDS011;9945;46.010;8.946;2023-02-12T05:29:05;9.77;;;8.77;;
19595;SDS011;9945;46.010;8.946;2023-02-12T05:31:32;10.93;;;9.03;;
19595;SDS011;9945;46.010;8.946;2023-02-12T05:33:59;10.90;;;9.00;;
19595;SDS011;9945;46.010;8.946;2023-02-12T05:36:26;9.33;;;8.33;;
19595;SDS011;9945;46.010;8.946;2023-02-12T05:38:56;10.23;;;8.03;;
19595;SDS011;9945;46.010;8.946;2023-02-12T05:41:25;9.50;;;7.67;;
19595;SDS011;9945;46.010;8.946;2023-02-12T05:43:52;9.53;;;7.87;;
19595;SDS011;9945;46.010;8.946;2023-02-12T05:46:20;8.67;;;7.43;;
19595;SDS011;9945;46.010;8.946;2023-02-12T05:48:47;10.73;;;7.87;;
19595;SDS011;9945;46.010;8.946;2023-02-12T05:51:15;11.00;;;8.80;;
19595;SDS011;9945;46.010;8.946;2023-02-12T05:53:44;10.97;;;7.67;;
19595;SDS011;9945;46.010;8.946;2023-02-12T05:56:12;10.87;;;8.83;;
19595;SDS011;9945;46.010;8.946;2023-02-12T05:58:42;9.87;;;8.53;;
19595;SDS011;9945;46.010;8.946;2023-02-12T06:01:12;9.03;;;8.13;;
19595;SDS011;9945;46.010;8.946;2023-02-12T06:03:41;9.30;;;8.07;;
19595;SDS011;9945;46.010;8.946;2023-02-12T06:06:08;10.33;;;8.67;;
19595;SDS011;9945;46.010;8.946;2023-02-12T06:08:35;11.90;;;8.23;;
19595;SDS011;9945;46.010;8.946;2023-02-12T06:11:04;10.57;;;8.33;;
19595;SDS011;9945;46.010;8.946;2023-02-12T06:13:32;12.37;;;8.13;;
19595;SDS011;9945;46.010;8.946;2023-02-12T06:16:01;8.53;;;7.60;;
19595;SDS011;9945;46.010;8.946;2023-02-12T06:18:28;8.87;;;7.83;;
19595;SDS011;9945;46.010;8.946;2023-02-12T06:20:56;9.93;;;8.33;;
19595;SDS011;9945;46.010;8.946;2023-02-12T06:23:23;9.57;;;8.13;;
19595;SDS011;9945;46.010;8.946;2023-02-12T06:25:50;9.87;;;7.80;;
19595;SDS011;9945;46.010;8.946;2023-02-12T06:28:21;9.23;;;8.13;;
19595;SDS011;9945;46.010;8.946;2023-02-12T06:30:48;9.80;;;8.33;;
19595;SDS011;9945;46.010;8.946;2023-02-12T06:33:16;8.80;;;7.27;;
19595;SDS011;9945;46.010;8.946;2023-02-12T06:35:43;10.27;;;7.80;;
19595;SDS011;9945;46.010;8.946;2023-02-12T06:38:10;9.07;;;7.97;;
19595;SDS011;9945;46.010;8.946;2023-02-12T06:40:37;8.17;;;7.30;;
19595;SDS011;9945;46.010;8.946;2023-02-12T06:43:03;8.23;;;7.40;;
19595;SDS011;9945;46.010;8.946;2023-02-12T06:45:31;7.97;;;7.13;;
19595;SDS011;9945;46.010;8.946;2023-02-12T06:47:58;8.60;;;6.77;;
19595;SDS011;9945;46.010;8.946;2023-02-12T06:50:26;8.40;;;7.13;;
19595;SDS011;9945;46.010;8.946;2023-02-12T06:52:53;7.67;;;6.87;;
19595;SDS011;9945;46.010;8.946;2023-02-12T06:55:20;8.20;;;6.70;;
19595;SDS011;9945;46.010;8.946;2023-02-12T06:57:47;10.57;;;7.33;;
19595;SDS011;9945;46.010;8.946;2023-02-12T07:00:14;8.83;;;7.93;;
19595;SDS011;9945;46.010;8.946;2023-02-12T07:02:41;10.17;;;8.30;;
19595;SDS011;9945;46.010;8.946;2023-02-12T07:05:08;8.63;;;7.73;;
19595;SDS011;9945;46.010;8.946;2023-02-12T07:07:37;8.53;;;7.63;;
19595;SDS011;9945;46.010;8.946;2023-02-12T07:10:04;8.80;;;7.87;;
19595;SDS011;9945;46.010;8.946;2023-02-12T07:12:32;10.17;;;8.40;;
19595;SDS011;9945;46.010;8.946;2023-02-12T07:14:59;8.57;;;7.43;;
19595;SDS011;9945;46.010;8.946;2023-02-12T07:17:27;10.40;;;7.57;;
19595;SDS011;9945;46.010;8.946;2023-02-12T07:19:54;9.07;;;7.43;;
19595;SDS011;9945;46.010;8.946;2023-02-12T07:22:21;10.60;;;7.73;;
19595;SDS011;9945;46.010;8.946;2023-02-12T07:24:50;10.33;;;8.33;;
19595;SDS011;9945;46.010;8.946;2023-02-12T07:27:17;10.53;;;7.87;;
19595;SDS011;9945;46.010;8.946;2023-02-12T07:29:43;11.40;;;8.27;;
19595;SDS011;9945;46.010;8.946;2023-02-12T07:32:10;9.97;;;8.57;;
19595;SDS011;9945;46.010;8.946;2023-02-12T07:34:37;10.27;;;8.90;;
19595;SDS011;9945;46.010;8.946;2023-02-12T07:37:04;11.13;;;9.37;;
19595;SDS011;9945;46.010;8.946;2023-02-12T07:39:32;9.13;;;8.20;;
19595;SDS011;9945;46.010;8.946;2023-02-12T07:42:00;10.40;;;8.90;;
19595;SDS011;9945;46.010;8.946;2023-02-12T07:44:27;11.83;;;8.47;;
19595;SDS011;9945;46.010;8.946;2023-02-12T07:46:55;9.23;;;8.20;;
19595;SDS011;9945;46.010;8.946;2023-02-12T07:49:22;9.67;;;8.63;;
19595;SDS011;9945;46.010;8.946;2023-02-12T07:51:49;9.27;;;8.10;;
19595;SDS011;9945;46.010;8.946;2023-02-12T07:54:16;11.47;;;8.47;;
19595;SDS011;9945;46.010;8.946;2023-02-12T07:56:43;10.80;;;7.80;;
19595;SDS011;9945;46.010;8.946;2023-02-12T07:59:14;8.03;;;7.23;;
19595;SDS011;9945;46.010;8.946;2023-02-12T08:01:42;10.77;;;7.80;;
19595;SDS011;9945;46.010;8.946;2023-02-12T08:04:12;11.20;;;7.63;;
19595;SDS011;9945;46.010;8.946;2023-02-12T08:06:41;8.83;;;7.73;;
19595;SDS011;9945;46.010;8.946;2023-02-12T08:09:11;8.50;;;7.70;;
19595;SDS011;9945;46.010;8.946;2023-02-12T08:11:40;9.37;;;7.90;;
19595;SDS011;9945;46.010;8.946;2023-02-12T08:14:10;8.00;;;7.27;;
19595;SDS011;9945;46.010;8.946;2023-02-12T08:16:39;8.10;;;7.30;;
19595;SDS011;9945;46.010;8.946;2023-02-12T08:19:08;7.63;;;6.83;;
19595;SDS011;9945;46.010;8.946;2023-02-12T08:21:35;8.73;;;6.87;;
19595;SDS011;9945;46.010;8.946;2023-02-12T08:24:02;14.07;;;7.50;;
19595;SDS011;9945;46.010;8.946;2023-02-12T08:26:30;11.50;;;7.60;;
19595;SDS011;9945;46.010;8.946;2023-02-12T08:28:58;8.10;;;7.30;;
19595;SDS011;9945;46.010;8.946;2023-02-12T08:31:28;21.67;;;10.53;;
19595;SDS011;9945;46.010;8.946;2023-02-12T08:33:57;10.57;;;7.47;;
19595;SDS011;9945;46.010;8.946;2023-02-12T08:36:25;16.97;;;9.03;;
19595;SDS011;9945;46.010;8.946;2023-02-12T08:38:56;15.17;;;8.50;;
19595;SDS011;9945;46.010;8.946;2023-02-12T08:41:23;13.80;;;7.70;;
19595;SDS011;9945;46.010;8.946;2023-02-12T08:43:52;10.83;;;7.37;;
19595;SDS011;9945;46.010;8.946;2023-02-12T08:46:22;10.57;;;7.07;;
19595;SDS011;9945;46.010;8.946;2023-02-12T08:48:51;11.50;;;7.63;;
19595;SDS011;9945;46.010;8.946;2023-02-12T08:51:22;8.93;;;7.43;;
19595;SDS011;9945;46.010;8.946;2023-02-12T08:53:51;10.50;;;6.20;;
19595;SDS011;9945;46.010;8.946;2023-02-12T08:56:19;11.30;;;7.23;;
19595;SDS011;9945;46.010;8.946;2023-02-12T08:58:46;7.93;;;7.23;;
19595;SDS011;9945;46.010;8.946;2023-02-12T09:01:14;6.73;;;6.13;;
19595;SDS011;9945;46.010;8.946;2023-02-12T09:03:42;8.30;;;7.50;;
19595;SDS011;9945;46.010;8.946;2023-02-12T09:06:10;9.90;;;7.43;;
19595;SDS011;9945;46.010;8.946;2023-02-12T09:08:39;9.55;;;8.63;;
19595;SDS011;9945;46.010;8.946;2023-02-12T09:11:07;8.07;;;7.30;;
19595;SDS011;9945;46.010;8.946;2023-02-12T09:13:36;9.65;;;8.80;;
19595;SDS011;9945;46.010;8.946;2023-02-12T09:16:04;11.00;;;9.95;;
19595;SDS011;9945;46.010;8.946;2023-02-12T09:18:32;11.25;;;10.05;;
19595;SDS011;9945;46.010;8.946;2023-02-12T09:20:59;14.27;;;11.90;;
19595;SDS011;9945;46.010;8.946;2023-02-12T09:23:27;12.85;;;11.45;;
19595;SDS011;9945;46.010;8.946;2023-02-12T09:25:56;12.68;;;10.23;;
19595;SDS011;9945;46.010;8.946;2023-02-12T09:28:23;14.13;;;9.88;;
19595;SDS011;9945;46.010;8.946;2023-02-12T09:30:50;12.77;;;11.10;;
19595;SDS011;9945;46.010;8.946;2023-02-12T09:33:17;13.23;;;9.88;;
19595;SDS011;9945;46.010;8.946;2023-02-12T09:35:43;10.98;;;9.85;;
19595;SDS011;9945;46.010;8.946;2023-02-12T09:38:10;11.07;;;10.07;;
19595;SDS011;9945;46.010;8.946;2023-02-12T09:40:39;11.43;;;10.23;;
19595;SDS011;9945;46.010;8.946;2023-02-12T09:43:16;10.85;;;9.75;;
19595;SDS011;9945;46.010;8.946;2023-02-12T09:45:46;12.57;;;10.23;;
19595;SDS011;9945;46.010;8.946;2023-02-12T09:48:33;11.73;;;10.32;;
19595;SDS011;9945;46.010;8.946;2023-02-12T09:51:11;9.77;;;8.75;;
19595;SDS011;9945;46.010;8.946;2023-02-12T09:53:41;9.82;;;8.88;;
19595;SDS011;9945;46.010;8.946;2023-02-12T09:56:14;9.82;;;8.93;;
19595;SDS011;9945;46.010;8.946;2023-02-12T09:58:48;11.68;;;8.98;;
19595;SDS011;9945;46.010;8.946;2023-02-12T10:01:19;11.55;;;10.35;;
19595;SDS011;9945;46.010;8.946;2023-02-12T10:03:56;10.80;;;9.70;;
19595;SDS011;9945;46.010;8.946;2023-02-12T10:06:24;10.75;;;9.85;;
19595;SDS011;9945;46.010;8.946;2023-02-12T10:09:01;10.82;;;9.90;;
19595;SDS011;9945;46.010;8.946;2023-02-12T10:14:34;10.15;;;9.35;;
19595;SDS011;9945;46.010;8.946;2023-02-12T10:17:28;10.05;;;9.05;;
19595;SDS011;9945;46.010;8.946;2023-02-12T10:20:10;9.50;;;8.80;;
19595;SDS011;9945;46.010;8.946;2023-02-12T10:22:56;9.95;;;9.05;;
19595;SDS011;9945;46.010;8.946;2023-02-12T10:25:39;9.52;;;8.68;;
19595;SDS011;9945;46.010;8.946;2023-02-12T10:28:12;9.45;;;8.75;;
19595;SDS011;9945;46.010;8.946;2023-02-12T10:30:44;10.00;;;9.10;;
19595;SDS011;9945;46.010;8.946;2023-02-12T10:33:18;9.25;;;8.52;;
19595;SDS011;9945;46.010;8.946;2023-02-12T10:35:52;8.68;;;7.97;;
19595;SDS011;9945;46.010;8.946;2023-02-12T10:38:25;9.88;;;9.05;;
19595;SDS011;9945;46.010;8.946;2023-02-12T10:40:55;9.55;;;8.85;;
19595;SDS011;9945;46.010;8.946;2023-02-12T10:43:26;8.95;;;8.32;;
19595;SDS011;9945;46.010;8.946;2023-02-12T10:45:54;9.15;;;8.45;;
19595;SDS011;9945;46.010;8.946;2023-02-12T10:48:23;9.93;;;9.13;;
19595;SDS011;9945;46.010;8.946;2023-02-12T10:50:59;9.57;;;8.77;;
19595;SDS011;9945;46.010;8.946;2023-02-12T10:53:32;10.10;;;9.30;;
19595;SDS011;9945;46.010;8.946;2023-02-12T10:56:13;9.80;;;8.98;;
19595;SDS011;9945;46.010;8.946;2023-02-12T10:58:50;10.32;;;9.32;;
19595;SDS011;9945;46.010;8.946;2023-02-12T11:01:22;9.25;;;8.52;;
19595;SDS011;9945;46.010;8.946;2023-02-12T11:03:52;9.80;;;8.80;;
19595;SDS011;9945;46.010;8.946;2023-02-12T11:06:21;7.68;;;7.18;;
19595;SDS011;9945;46.010;8.946;2023-02-12T11:08:50;10.45;;;7.55;;
19595;SDS011;9945;46.010;8.946;2023-02-12T11:11:20;7.10;;;6.57;;
19595;SDS011;9945;46.010;8.946;2023-02-12T11:13:52;7.05;;;6.43;;
19595;SDS011;9945;46.010;8.946;2023-02-12T11:16:30;6.70;;;6.18;;
19595;SDS011;9945;46.010;8.946;2023-02-12T11:18:59;5.80;;;5.40;;
19595;SDS011;9945;46.010;8.946;2023-02-12T11:21:29;4.00;;;3.63;;
19595;SDS011;9945;46.010;8.946;2023-02-12T11:23:57;5.63;;;5.13;;
19595;SDS011;9945;46.010;8.946;2023-02-12T11:27:10;5.72;;;5.32;;
19595;SDS011;9945;46.010;8.946;2023-02-12T11:30:02;5.90;;;5.50;;
19595;SDS011;9945;46.010;8.946;2023-02-12T11:32:37;4.95;;;4.65;;
19595;SDS011;9945;46.010;8.946;2023-02-12T11:35:05;6.75;;;6.10;;
19595;SDS011;9945;46.010;8.946;2023-02-12T11:37:32;5.55;;;5.05;;
19595;SDS011;9945;46.010;8.946;2023-02-12T11:40:10;4.97;;;4.57;;
19595;SDS011;9945;46.010;8.946;2023-02-12T11:42:42;5.07;;;4.78;;
19595;SDS011;9945;46.010;8.946;2023-02-12T11:45:15;5.95;;;4.75;;
19595;SDS011;9945;46.010;8.946;2023-02-12T11:47:43;4.65;;;4.35;;
19595;SDS011;9945;46.010;8.946;2023-02-12T11:50:15;4.95;;;4.55;;
19595;SDS011;9945;46.010;8.946;2023-02-12T11:52:49;4.47;;;4.18;;
19595;SDS011;9945;46.010;8.946;2023-02-12T11:55:21;5.05;;;4.55;;
19595;SDS011;9945;46.010;8.946;2023-02-12T11:57:50;4.50;;;4.10;;
19595;SDS011;9945;46.010;8.946;2023-02-12T12:00:19;4.88;;;4.57;;
19595;SDS011;9945;46.010;8.946;2023-02-12T12:02:52;5.15;;;4.75;;
19595;SDS011;9945;46.010;8.946;2023-02-12T12:05:24;5.45;;;4.95;;
19595;SDS011;9945;46.010;8.946;2023-02-12T12:07:57;5.10;;;4.60;;
19595;SDS011;9945;46.010;8.946;2023-02-12T12:10:33;4.32;;;4.00;;
19595;SDS011;9945;46.010;8.946;2023-02-12T12:13:04;4.80;;;4.40;;
19595;SDS011;9945;46.010;8.946;2023-02-12T12:15:39;4.93;;;4.53;;
19595;SDS011;9945;46.010;8.946;2023-02-12T12:18:28;4.95;;;4.60;;
19595;SDS011;9945;46.010;8.946;2023-02-12T12:21:21;5.53;;;4.50;;
19595;SDS011;9945;46.010;8.946;2023-02-12T12:23:54;5.50;;;5.10;;
19595;SDS011;9945;46.010;8.946;2023-02-12T12:26:26;5.55;;;5.05;;
19595;SDS011;9945;46.010;8.946;2023-02-12T12:28:56;5.32;;;4.82;;
19595;SDS011;9945;46.010;8.946;2023-02-12T12:31:31;6.05;;;5.28;;
19595;SDS011;9945;46.010;8.946;2023-02-12T12:34:02;5.38;;;4.97;;
19595;SDS011;9945;46.010;8.946;2023-02-12T12:39:31;5.55;;;5.15;;
19595;SDS011;9945;46.010;8.946;2023-02-12T12:42:11;6.75;;;6.25;;
19595;SDS011;9945;46.010;8.946;2023-02-12T12:44:57;7.40;;;5.97;;
19595;SDS011;9945;46.010;8.946;2023-02-12T12:47:45;7.28;;;5.95;;
19595;SDS011;9945;46.010;8.946;2023-02-12T12:50:30;5.82;;;5.30;;
19595;SDS011;9945;46.010;8.946;2023-02-12T12:53:12;5.78;;;5.35;;
19595;SDS011;9945;46.010;8.946;2023-02-12T12:56:09;6.55;;;6.05;;
19595;SDS011;9945;46.010;8.946;2023-02-12T13:02:00;6.43;;;5.90;;
19595;SDS011;9945;46.010;8.946;2023-02-12T13:04:51;7.47;;;6.88;;
19595;SDS011;9945;46.010;8.946;2023-02-12T13:07:40;6.60;;;6.05;;
19595;SDS011;9945;46.010;8.946;2023-02-12T13:10:18;6.35;;;5.85;;
19595;SDS011;9945;46.010;8.946;2023-02-12T13:12:54;5.85;;;5.30;;
19595;SDS011;9945;46.010;8.946;2023-02-12T13:15:31;4.75;;;4.22;;
19595;SDS011;9945;46.010;8.946;2023-02-12T13:18:06;4.20;;;3.90;;
19595;SDS011;9945;46.010;8.946;2023-02-12T13:20:44;6.07;;;3.95;;
19595;SDS011;9945;46.010;8.946;2023-02-12T13:23:19;4.47;;;4.18;;
19595;SDS011;9945;46.010;8.946;2023-02-12T13:25:56;5.43;;;4.90;;
19595;SDS011;9945;46.010;8.946;2023-02-12T13:28:31;5.65;;;5.18;;
19595;SDS011;9945;46.010;8.946;2023-02-12T13:31:01;6.07;;;5.55;;
19595;SDS011;9945;46.010;8.946;2023-02-12T13:33:35;6.65;;;5.95;;
19595;SDS011;9945;46.010;8.946;2023-02-12T13:36:09;6.10;;;5.70;;
19595;SDS011;9945;46.010;8.946;2023-02-12T13:38:39;6.65;;;6.15;;
19595;SDS011;9945;46.010;8.946;2023-02-12T13:41:11;6.78;;;6.22;;
19595;SDS011;9945;46.010;8.946;2023-02-12T13:43:43;6.85;;;6.28;;
19595;SDS011;9945;46.010;8.946;2023-02-12T13:46:22;6.63;;;5.97;;
19595;SDS011;9945;46.010;8.946;2023-02-12T13:48:59;6.18;;;5.68;;
19595;SDS011;9945;46.010;8.946;2023-02-12T13:51:39;9.20;;;6.63;;
19595;SDS011;9945;46.010;8.946;2023-02-12T13:54:16;6.70;;;6.05;;
19595;SDS011;9945;46.010;8.946;2023-02-12T13:56:51;7.72;;;7.13;;
19595;SDS011;9945;46.010;8.946;2023-02-12T13:59:40;8.50;;;6.40;;
19595;SDS011;9945;46.010;8.946;2023-02-12T14:02:25;6.93;;;6.43;;
19595;SDS011;9945;46.010;8.946;2023-02-12T14:04:56;7.07;;;6.57;;
19595;SDS011;9945;46.010;8.946;2023-02-12T14:07:38;5.82;;;5.43;;
19595;SDS011;9945;46.010;8.946;2023-02-12T14:10:17;6.88;;;6.25;;
19595;SDS011;9945;46.010;8.946;2023-02-12T14:12:46;7.30;;;6.65;;
19595;SDS011;9945;46.010;8.946;2023-02-12T14:15:20;7.13;;;6.55;;
19595;SDS011;9945;46.010;8.946;2023-02-12T14:18:03;7.50;;;6.85;;
19595;SDS011;9945;46.010;8.946;2023-02-12T14:20:49;7.35;;;6.60;;
19595;SDS011;9945;46.010;8.946;2023-02-12T14:35:48;7.72;;;6.75;;
19595;SDS011;9945;46.010;8.946;2023-02-12T14:41:25;8.32;;;7.07;;
19595;SDS011;9945;46.010;8.946;2023-02-12T14:47:03;7.28;;;6.63;;
19595;SDS011;9945;46.010;8.946;2023-02-12T14:49:38;8.10;;;7.30;;
19595;SDS011;9945;46.010;8.946;2023-02-12T14:52:15;8.80;;;7.90;;
19595;SDS011;9945;46.010;8.946;2023-02-12T14:54:48;10.27;;;7.50;;
19595;SDS011;9945;46.010;8.946;2023-02-12T14:57:22;8.40;;;7.60;;
19595;SDS011;9945;46.010;8.946;2023-02-12T14:59:51;11.13;;;8.90;;
19595;SDS011;9945;46.010;8.946;2023-02-12T15:02:22;8.40;;;7.60;;
19595;SDS011;9945;46.010;8.946;2023-02-12T15:04:51;8.00;;;7.20;;
19595;SDS011;9945;46.010;8.946;2023-02-12T15:07:23;9.20;;;7.50;;
19595;SDS011;9945;46.010;8.946;2023-02-12T15:09:56;13.15;;;8.40;;
19595;SDS011;9945;46.010;8.946;2023-02-12T15:12:32;8.88;;;8.05;;
19595;SDS011;9945;46.010;8.946;2023-02-12T15:15:04;8.27;;;7.50;;
19595;SDS011;9945;46.010;8.946;2023-02-12T15:17:38;8.77;;;7.97;;
19595;SDS011;9945;46.010;8.946;2023-02-12T15:20:12;8.75;;;7.72;;
19595;SDS011;9945;46.010;8.946;2023-02-12T15:22:49;9.10;;;8.20;;
19595;SDS011;9945;46.010;8.946;2023-02-12T15:25:20;9.38;;;8.40;;
19595;SDS011;9945;46.010;8.946;2023-02-12T15:27:48;9.15;;;8.30;;
19595;SDS011;9945;46.010;8.946;2023-02-12T15:30:18;10.00;;;8.18;;
19595;SDS011;9945;46.010;8.946;2023-02-12T15:32:48;10.10;;;9.20;;
19595;SDS011;9945;46.010;8.946;2023-02-12T15:35:19;9.55;;;8.75;;
19595;SDS011;9945;46.010;8.946;2023-02-12T15:37:51;10.45;;;9.27;;
19595;SDS011;9945;46.010;8.946;2023-02-12T15:40:19;8.57;;;7.88;;
19595;SDS011;9945;46.010;8.946;2023-02-12T15:42:51;10.38;;;9.25;;
19595;SDS011;9945;46.010;8.946;2023-02-12T15:45:21;10.07;;;9.18;;
19595;SDS011;9945;46.010;8.946;2023-02-12T15:47:58;9.43;;;8.63;;